sensor_id;sensor_type;location;lat;lon;timestamp;P1;durP1;ratioP1;P2;durP2;ratioP2
38457;SDS011;24239;48.058;10.486;2022-09-13T00:00:55;5.07;;;4.00;;
38457;SDS011;24239;48.058;10.486;2022-09-13T00:03:21;5.65;;;3.70;;
38457;SDS011;24239;48.058;10.486;2022-09-13T00:05:47;4.32;;;3.70;;
38457;SDS011;24239;48.058;10.486;2022-09-13T00:08:13;6.20;;;3.63;;
38457;SDS011;24239;48.058;10.486;2022-09-13T00:10:40;5.75;;;3.95;;
38457;SDS011;24239;48.058;10.486;2022-09-13T00:13:07;4.47;;;3.70;;
38457;SDS011;24239;48.058;10.486;2022-09-13T00:15:34;8.18;;;4.88;;
38457;SDS011;24239;48.058;10.486;2022-09-13T00:18:01;4.80;;;3.80;;
38457;SDS011;24239;48.058;10.486;2022-09-13T00:20:26;5.57;;;4.35;;
38457;SDS011;24239;48.058;10.486;2022-09-13T00:22:52;8.95;;;3.53;;
38457;SDS011;24239;48.058;10.486;2022-09-13T00:25:18;3.67;;;3.30;;
38457;SDS011;24239;48.058;10.486;2022-09-13T00:27:44;3.53;;;3.17;;
38457;SDS011;24239;48.058;10.486;2022-09-13T00:30:10;5.85;;;3.40;;
38457;SDS011;24239;48.058;10.486;2022-09-13T00:32:37;8.23;;;3.67;;
38457;SDS011;24239;48.058;10.486;2022-09-13T00:35:04;6.35;;;3.85;;
38457;SDS011;24239;48.058;10.486;2022-09-13T00:37:31;3.55;;;3.22;;
38457;SDS011;24239;48.058;10.486;2022-09-13T00:39:58;4.13;;;3.45;;
38457;SDS011;24239;48.058;10.486;2022-09-13T00:42:25;6.40;;;3.30;;
38457;SDS011;24239;48.058;10.486;2022-09-13T00:50:12;5.85;;;3.40;;
38457;SDS011;24239;48.058;10.486;2022-09-13T00:52:42;7.03;;;4.05;;
38457;SDS011;24239;48.058;10.486;2022-09-13T00:55:24;3.80;;;3.40;;
38457;SDS011;24239;48.058;10.486;2022-09-13T00:57:53;11.13;;;3.90;;
38457;SDS011;24239;48.058;10.486;2022-09-13T01:00:24;5.07;;;3.60;;
38457;SDS011;24239;48.058;10.486;2022-09-13T01:02:51;5.70;;;3.40;;
38457;SDS011;24239;48.058;10.486;2022-09-13T01:05:23;4.30;;;3.90;;
38457;SDS011;24239;48.058;10.486;2022-09-13T01:07:52;4.45;;;3.25;;
38457;SDS011;24239;48.058;10.486;2022-09-13T01:10:19;4.30;;;3.50;;
38457;SDS011;24239;48.058;10.486;2022-09-13T01:12:55;3.97;;;3.58;;
38457;SDS011;24239;48.058;10.486;2022-09-13T01:15:30;3.70;;;3.33;;
38457;SDS011;24239;48.058;10.486;2022-09-13T01:17:56;4.30;;;3.40;;
38457;SDS011;24239;48.058;10.486;2022-09-13T01:20:24;7.55;;;3.30;;
38457;SDS011;24239;48.058;10.486;2022-09-13T01:37:45;8.13;;;3.70;;
38457;SDS011;24239;48.058;10.486;2022-09-13T01:43:51;3.30;;;3.00;;
38457;SDS011;24239;48.058;10.486;2022-09-13T01:46:47;3.95;;;3.33;;
38457;SDS011;24239;48.058;10.486;2022-09-13T01:49:37;7.05;;;3.35;;
38457;SDS011;24239;48.058;10.486;2022-09-13T01:52:16;3.53;;;3.15;;
38457;SDS011;24239;48.058;10.486;2022-09-13T01:57:47;6.18;;;3.30;;
38457;SDS011;24239;48.058;10.486;2022-09-13T02:09:17;6.47;;;3.20;;
38457;SDS011;24239;48.058;10.486;2022-09-13T02:11:47;4.15;;;3.28;;
38457;SDS011;24239;48.058;10.486;2022-09-13T02:21:59;4.20;;;3.08;;
38457;SDS011;24239;48.058;10.486;2022-09-13T02:24:38;6.03;;;3.42;;
38457;SDS011;24239;48.058;10.486;2022-09-13T02:27:11;3.40;;;2.78;;
38457;SDS011;24239;48.058;10.486;2022-09-13T02:29:42;6.30;;;3.28;;
38457;SDS011;24239;48.058;10.486;2022-09-13T02:34:55;5.53;;;3.03;;
38457;SDS011;24239;48.058;10.486;2022-09-13T02:37:44;3.47;;;3.17;;
38457;SDS011;24239;48.058;10.486;2022-09-13T02:40:17;4.40;;;2.85;;
38457;SDS011;24239;48.058;10.486;2022-09-13T02:42:54;3.30;;;3.00;;
38457;SDS011;24239;48.058;10.486;2022-09-13T02:45:32;3.33;;;3.03;;
38457;SDS011;24239;48.058;10.486;2022-09-13T02:48:09;3.40;;;2.90;;
38457;SDS011;24239;48.058;10.486;2022-09-13T03:01:05;3.13;;;2.83;;
38457;SDS011;24239;48.058;10.486;2022-09-13T03:03:31;4.00;;;2.90;;
38457;SDS011;24239;48.058;10.486;2022-09-13T03:05:56;4.85;;;3.08;;
38457;SDS011;24239;48.058;10.486;2022-09-13T03:08:22;3.20;;;2.88;;
38457;SDS011;24239;48.058;10.486;2022-09-13T03:11:02;3.00;;;2.70;;
38457;SDS011;24239;48.058;10.486;2022-09-13T03:13:39;7.10;;;3.03;;
38457;SDS011;24239;48.058;10.486;2022-09-13T03:40:27;3.55;;;3.25;;
38457;SDS011;24239;48.058;10.486;2022-09-13T03:43:10;4.10;;;3.03;;
38457;SDS011;24239;48.058;10.486;2022-09-13T03:45:42;2.65;;;2.42;;
38457;SDS011;24239;48.058;10.486;2022-09-13T03:48:14;4.88;;;3.00;;
38457;SDS011;24239;48.058;10.486;2022-09-13T03:50:41;3.40;;;2.60;;
38457;SDS011;24239;48.058;10.486;2022-09-13T03:53:10;2.80;;;2.60;;
38457;SDS011;24239;48.058;10.486;2022-09-13T03:55:39;4.93;;;2.90;;
38457;SDS011;24239;48.058;10.486;2022-09-13T03:58:13;3.70;;;2.75;;
38457;SDS011;24239;48.058;10.486;2022-09-13T04:00:41;3.30;;;2.60;;
38457;SDS011;24239;48.058;10.486;2022-09-13T04:03:08;2.88;;;2.58;;
38457;SDS011;24239;48.058;10.486;2022-09-13T04:05:34;4.50;;;3.05;;
38457;SDS011;24239;48.058;10.486;2022-09-13T04:08:00;5.03;;;2.83;;
38457;SDS011;24239;48.058;10.486;2022-09-13T04:10:30;4.13;;;2.72;;
38457;SDS011;24239;48.058;10.486;2022-09-13T04:12:57;3.03;;;2.72;;
38457;SDS011;24239;48.058;10.486;2022-09-13T04:15:24;5.25;;;2.88;;
38457;SDS011;24239;48.058;10.486;2022-09-13T04:17:51;4.57;;;2.75;;
38457;SDS011;24239;48.058;10.486;2022-09-13T04:20:17;3.25;;;2.95;;
38457;SDS011;24239;48.058;10.486;2022-09-13T04:22:43;5.75;;;2.70;;
38457;SDS011;24239;48.058;10.486;2022-09-13T04:25:15;6.35;;;2.70;;
38457;SDS011;24239;48.058;10.486;2022-09-13T04:27:41;3.83;;;2.67;;
38457;SDS011;24239;48.058;10.486;2022-09-13T04:30:07;4.32;;;2.50;;
38457;SDS011;24239;48.058;10.486;2022-09-13T04:32:33;3.10;;;2.47;;
38457;SDS011;24239;48.058;10.486;2022-09-13T04:35:02;3.72;;;2.67;;
38457;SDS011;24239;48.058;10.486;2022-09-13T04:37:28;5.28;;;2.90;;
38457;SDS011;24239;48.058;10.486;2022-09-13T04:39:53;4.45;;;2.22;;
38457;SDS011;24239;48.058;10.486;2022-09-13T04:42:19;3.92;;;2.35;;
38457;SDS011;24239;48.058;10.486;2022-09-13T04:44:45;4.72;;;2.17;;
38457;SDS011;24239;48.058;10.486;2022-09-13T04:47:14;2.80;;;2.50;;
38457;SDS011;24239;48.058;10.486;2022-09-13T04:49:42;2.67;;;2.33;;
38457;SDS011;24239;48.058;10.486;2022-09-13T04:52:08;4.93;;;3.15;;
38457;SDS011;24239;48.058;10.486;2022-09-13T04:54:34;4.53;;;2.20;;
38457;SDS011;24239;48.058;10.486;2022-09-13T04:57:02;9.90;;;2.60;;
38457;SDS011;24239;48.058;10.486;2022-09-13T04:59:30;2.60;;;2.38;;
38457;SDS011;24239;48.058;10.486;2022-09-13T05:01:56;3.67;;;2.30;;
38457;SDS011;24239;48.058;10.486;2022-09-13T05:04:22;4.32;;;2.42;;
38457;SDS011;24239;48.058;10.486;2022-09-13T05:06:48;4.55;;;2.70;;
38457;SDS011;24239;48.058;10.486;2022-09-13T05:09:14;5.32;;;2.80;;
38457;SDS011;24239;48.058;10.486;2022-09-13T05:11:40;5.50;;;2.90;;
38457;SDS011;24239;48.058;10.486;2022-09-13T05:14:08;7.82;;;2.80;;
38457;SDS011;24239;48.058;10.486;2022-09-13T05:16:35;4.25;;;2.80;;
38457;SDS011;24239;48.058;10.486;2022-09-13T05:19:00;4.00;;;3.03;;
38457;SDS011;24239;48.058;10.486;2022-09-13T05:21:27;3.47;;;2.58;;
38457;SDS011;24239;48.058;10.486;2022-09-13T05:23:54;3.67;;;2.95;;
38457;SDS011;24239;48.058;10.486;2022-09-13T05:26:21;6.80;;;3.25;;
38457;SDS011;24239;48.058;10.486;2022-09-13T05:28:49;5.07;;;2.60;;
38457;SDS011;24239;48.058;10.486;2022-09-13T05:31:37;3.90;;;2.25;;
38457;SDS011;24239;48.058;10.486;2022-09-13T05:34:08;5.95;;;2.80;;
38457;SDS011;24239;48.058;10.486;2022-09-13T05:36:39;4.93;;;2.25;;
38457;SDS011;24239;48.058;10.486;2022-09-13T05:39:06;4.97;;;2.38;;
38457;SDS011;24239;48.058;10.486;2022-09-13T05:41:36;5.15;;;2.55;;
38457;SDS011;24239;48.058;10.486;2022-09-13T05:44:01;4.15;;;2.67;;
38457;SDS011;24239;48.058;10.486;2022-09-13T05:46:27;2.75;;;2.00;;
38457;SDS011;24239;48.058;10.486;2022-09-13T05:48:56;3.22;;;2.30;;
38457;SDS011;24239;48.058;10.486;2022-09-13T05:51:22;8.57;;;2.20;;
38457;SDS011;24239;48.058;10.486;2022-09-13T05:53:49;4.95;;;2.15;;
38457;SDS011;24239;48.058;10.486;2022-09-13T05:56:26;3.38;;;2.25;;
38457;SDS011;24239;48.058;10.486;2022-09-13T05:58:53;3.20;;;2.30;;
38457;SDS011;24239;48.058;10.486;2022-09-13T06:01:25;3.88;;;2.30;;
38457;SDS011;24239;48.058;10.486;2022-09-13T06:03:57;2.47;;;2.20;;
38457;SDS011;24239;48.058;10.486;2022-09-13T06:06:24;3.20;;;1.92;;
38457;SDS011;24239;48.058;10.486;2022-09-13T06:08:53;4.30;;;2.33;;
38457;SDS011;24239;48.058;10.486;2022-09-13T06:11:20;4.57;;;2.67;;
38457;SDS011;24239;48.058;10.486;2022-09-13T06:13:49;6.70;;;2.78;;
38457;SDS011;24239;48.058;10.486;2022-09-13T06:16:15;5.00;;;2.42;;
38457;SDS011;24239;48.058;10.486;2022-09-13T06:18:41;2.85;;;2.40;;
38457;SDS011;24239;48.058;10.486;2022-09-13T06:21:09;7.97;;;2.70;;
38457;SDS011;24239;48.058;10.486;2022-09-13T06:23:37;4.05;;;2.30;;
38457;SDS011;24239;48.058;10.486;2022-09-13T06:28:30;3.78;;;2.45;;
38457;SDS011;24239;48.058;10.486;2022-09-13T06:31:03;5.03;;;2.70;;
38457;SDS011;24239;48.058;10.486;2022-09-13T06:33:31;4.95;;;2.65;;
38457;SDS011;24239;48.058;10.486;2022-09-13T06:36:02;3.72;;;2.42;;
38457;SDS011;24239;48.058;10.486;2022-09-13T06:38:29;6.43;;;2.50;;
38457;SDS011;24239;48.058;10.486;2022-09-13T06:41:01;3.58;;;2.20;;
38457;SDS011;24239;48.058;10.486;2022-09-13T06:43:29;2.85;;;2.22;;
38457;SDS011;24239;48.058;10.486;2022-09-13T06:46:02;3.80;;;2.35;;
38457;SDS011;24239;48.058;10.486;2022-09-13T06:48:36;4.55;;;2.15;;
38457;SDS011;24239;48.058;10.486;2022-09-13T06:51:04;7.57;;;1.88;;
38457;SDS011;24239;48.058;10.486;2022-09-13T06:53:32;6.55;;;2.05;;
38457;SDS011;24239;48.058;10.486;2022-09-13T06:56:00;3.95;;;1.65;;
38457;SDS011;24239;48.058;10.486;2022-09-13T06:58:33;3.03;;;2.10;;
38457;SDS011;24239;48.058;10.486;2022-09-13T07:03:42;3.75;;;1.80;;
38457;SDS011;24239;48.058;10.486;2022-09-13T07:06:16;2.75;;;1.48;;
38457;SDS011;24239;48.058;10.486;2022-09-13T07:08:46;1.58;;;1.33;;
38457;SDS011;24239;48.058;10.486;2022-09-13T07:11:14;1.45;;;1.35;;
38457;SDS011;24239;48.058;10.486;2022-09-13T07:13:46;2.00;;;1.27;;
38457;SDS011;24239;48.058;10.486;2022-09-13T07:16:14;4.57;;;1.33;;
38457;SDS011;24239;48.058;10.486;2022-09-13T07:18:40;5.28;;;1.27;;
38457;SDS011;24239;48.058;10.486;2022-09-13T07:21:06;2.38;;;1.10;;
38457;SDS011;24239;48.058;10.486;2022-09-13T07:23:34;3.50;;;1.10;;
38457;SDS011;24239;48.058;10.486;2022-09-13T07:26:02;2.50;;;1.08;;
38457;SDS011;24239;48.058;10.486;2022-09-13T07:28:39;1.30;;;0.98;;
38457;SDS011;24239;48.058;10.486;2022-09-13T07:31:10;3.65;;;1.20;;
38457;SDS011;24239;48.058;10.486;2022-09-13T07:33:39;2.15;;;0.95;;
38457;SDS011;24239;48.058;10.486;2022-09-13T07:36:06;6.00;;;1.10;;
38457;SDS011;24239;48.058;10.486;2022-09-13T07:38:33;1.15;;;1.00;;
38457;SDS011;24239;48.058;10.486;2022-09-13T07:41:00;2.83;;;1.05;;
38457;SDS011;24239;48.058;10.486;2022-09-13T07:43:27;3.58;;;1.17;;
38457;SDS011;24239;48.058;10.486;2022-09-13T07:46:00;1.85;;;1.10;;
38457;SDS011;24239;48.058;10.486;2022-09-13T07:48:28;3.45;;;1.02;;
38457;SDS011;24239;48.058;10.486;2022-09-13T07:53:30;3.90;;;1.17;;
38457;SDS011;24239;48.058;10.486;2022-09-13T07:56:03;9.13;;;1.90;;
38457;SDS011;24239;48.058;10.486;2022-09-13T07:58:29;1.83;;;0.85;;
38457;SDS011;24239;48.058;10.486;2022-09-13T08:00:59;3.67;;;1.10;;
38457;SDS011;24239;48.058;10.486;2022-09-13T08:03:32;1.23;;;1.10;;
38457;SDS011;24239;48.058;10.486;2022-09-13T08:05:59;2.40;;;1.05;;
38457;SDS011;24239;48.058;10.486;2022-09-13T08:08:25;2.92;;;1.17;;
38457;SDS011;24239;48.058;10.486;2022-09-13T08:10:52;1.63;;;0.80;;
38457;SDS011;24239;48.058;10.486;2022-09-13T08:13:18;1.63;;;0.95;;
38457;SDS011;24239;48.058;10.486;2022-09-13T08:15:43;2.53;;;1.00;;
38457;SDS011;24239;48.058;10.486;2022-09-13T08:18:12;1.30;;;1.00;;
38457;SDS011;24239;48.058;10.486;2022-09-13T08:20:38;6.65;;;1.30;;
38457;SDS011;24239;48.058;10.486;2022-09-13T08:23:04;4.60;;;1.23;;
38457;SDS011;24239;48.058;10.486;2022-09-13T08:25:34;1.77;;;0.80;;
38457;SDS011;24239;48.058;10.486;2022-09-13T08:28:07;2.97;;;0.90;;
38457;SDS011;24239;48.058;10.486;2022-09-13T08:30:37;2.97;;;0.80;;
38457;SDS011;24239;48.058;10.486;2022-09-13T08:33:03;1.10;;;0.60;;
38457;SDS011;24239;48.058;10.486;2022-09-13T08:35:30;2.42;;;1.00;;
38457;SDS011;24239;48.058;10.486;2022-09-13T08:37:59;2.15;;;0.90;;
38457;SDS011;24239;48.058;10.486;2022-09-13T08:40:27;2.97;;;1.15;;
38457;SDS011;24239;48.058;10.486;2022-09-13T08:48:37;0.85;;;0.85;;
38457;SDS011;24239;48.058;10.486;2022-09-13T08:51:08;0.98;;;0.82;;
38457;SDS011;24239;48.058;10.486;2022-09-13T08:53:45;1.42;;;1.05;;
38457;SDS011;24239;48.058;10.486;2022-09-13T08:56:15;4.13;;;1.10;;
38457;SDS011;24239;48.058;10.486;2022-09-13T09:04:18;1.17;;;0.90;;
38457;SDS011;24239;48.058;10.486;2022-09-13T09:06:49;3.88;;;1.02;;
38457;SDS011;24239;48.058;10.486;2022-09-13T09:09:15;3.05;;;1.08;;
38457;SDS011;24239;48.058;10.486;2022-09-13T09:14:17;1.40;;;0.90;;
38457;SDS011;24239;48.058;10.486;2022-09-13T09:16:54;4.20;;;1.00;;
38457;SDS011;24239;48.058;10.486;2022-09-13T09:21:52;2.03;;;1.00;;
38457;SDS011;24239;48.058;10.486;2022-09-13T09:24:20;4.68;;;1.48;;
38457;SDS011;24239;48.058;10.486;2022-09-13T09:26:48;1.27;;;1.02;;
38457;SDS011;24239;48.058;10.486;2022-09-13T09:29:24;2.25;;;1.33;;
38457;SDS011;24239;48.058;10.486;2022-09-13T09:37:24;2.38;;;1.13;;
38457;SDS011;24239;48.058;10.486;2022-09-13T09:39:53;2.63;;;1.15;;
38457;SDS011;24239;48.058;10.486;2022-09-13T09:42:23;3.25;;;1.25;;
38457;SDS011;24239;48.058;10.486;2022-09-13T09:45:00;3.25;;;1.30;;
38457;SDS011;24239;48.058;10.486;2022-09-13T09:47:43;3.83;;;1.20;;
38457;SDS011;24239;48.058;10.486;2022-09-13T09:55:36;2.58;;;1.20;;
38457;SDS011;24239;48.058;10.486;2022-09-13T09:58:10;2.17;;;1.33;;
38457;SDS011;24239;48.058;10.486;2022-09-13T10:00:56;1.52;;;0.95;;
38457;SDS011;24239;48.058;10.486;2022-09-13T10:03:24;1.77;;;1.13;;
38457;SDS011;24239;48.058;10.486;2022-09-13T10:06:12;5.35;;;1.15;;
38457;SDS011;24239;48.058;10.486;2022-09-13T10:08:53;1.20;;;1.08;;
38457;SDS011;24239;48.058;10.486;2022-09-13T10:11:44;3.35;;;1.48;;
38457;SDS011;24239;48.058;10.486;2022-09-13T10:14:35;1.33;;;1.10;;
38457;SDS011;24239;48.058;10.486;2022-09-13T10:19:57;1.60;;;1.20;;
38457;SDS011;24239;48.058;10.486;2022-09-13T10:22:41;3.00;;;1.10;;
38457;SDS011;24239;48.058;10.486;2022-09-13T10:25:29;2.35;;;1.20;;
38457;SDS011;24239;48.058;10.486;2022-09-13T10:27:56;2.75;;;1.30;;
38457;SDS011;24239;48.058;10.486;2022-09-13T10:32:59;2.20;;;1.40;;
38457;SDS011;24239;48.058;10.486;2022-09-13T10:35:25;4.13;;;1.10;;
38457;SDS011;24239;48.058;10.486;2022-09-13T10:37:52;1.40;;;1.00;;
38457;SDS011;24239;48.058;10.486;2022-09-13T10:40:24;2.55;;;1.20;;
38457;SDS011;24239;48.058;10.486;2022-09-13T10:43:01;0.98;;;0.90;;
38457;SDS011;24239;48.058;10.486;2022-09-13T10:45:32;2.15;;;1.20;;
38457;SDS011;24239;48.058;10.486;2022-09-13T10:48:08;2.08;;;1.30;;
38457;SDS011;24239;48.058;10.486;2022-09-13T10:50:36;1.15;;;0.90;;
38457;SDS011;24239;48.058;10.486;2022-09-13T10:53:02;3.83;;;1.10;;
38457;SDS011;24239;48.058;10.486;2022-09-13T11:00:30;1.73;;;1.20;;
38457;SDS011;24239;48.058;10.486;2022-09-13T11:20:42;1.38;;;0.90;;
38457;SDS011;24239;48.058;10.486;2022-09-13T11:25:53;1.40;;;1.00;;
38457;SDS011;24239;48.058;10.486;2022-09-13T11:38:56;2.17;;;0.88;;
38457;SDS011;24239;48.058;10.486;2022-09-13T11:41:53;1.10;;;0.90;;
38457;SDS011;24239;48.058;10.486;2022-09-13T11:50:22;3.17;;;0.80;;
38457;SDS011;24239;48.058;10.486;2022-09-13T11:52:59;3.40;;;0.77;;
38457;SDS011;24239;48.058;10.486;2022-09-13T11:55:36;0.90;;;0.70;;
38457;SDS011;24239;48.058;10.486;2022-09-13T11:58:07;1.67;;;0.95;;
38457;SDS011;24239;48.058;10.486;2022-09-13T12:00:45;0.77;;;0.60;;
38457;SDS011;24239;48.058;10.486;2022-09-13T12:06:22;2.63;;;0.88;;
38457;SDS011;24239;48.058;10.486;2022-09-13T12:09:04;3.30;;;0.90;;
38457;SDS011;24239;48.058;10.486;2022-09-13T12:11:43;1.48;;;0.80;;
38457;SDS011;24239;48.058;10.486;2022-09-13T12:14:14;0.80;;;0.65;;
38457;SDS011;24239;48.058;10.486;2022-09-13T12:21:46;2.50;;;0.90;;
38457;SDS011;24239;48.058;10.486;2022-09-13T12:24:15;1.70;;;0.90;;
38457;SDS011;24239;48.058;10.486;2022-09-13T12:32:02;1.35;;;1.00;;
38457;SDS011;24239;48.058;10.486;2022-09-13T12:45:25;2.08;;;1.17;;
38457;SDS011;24239;48.058;10.486;2022-09-13T13:01:25;4.90;;;1.63;;
38457;SDS011;24239;48.058;10.486;2022-09-13T13:06:36;6.03;;;1.40;;
38457;SDS011;24239;48.058;10.486;2022-09-13T13:12:10;3.08;;;1.20;;
38457;SDS011;24239;48.058;10.486;2022-09-13T13:14:56;1.35;;;1.08;;
38457;SDS011;24239;48.058;10.486;2022-09-13T13:17:37;3.08;;;1.20;;
38457;SDS011;24239;48.058;10.486;2022-09-13T13:36:23;3.20;;;1.00;;
38457;SDS011;24239;48.058;10.486;2022-09-13T13:38:59;3.25;;;1.10;;
38457;SDS011;24239;48.058;10.486;2022-09-13T13:46:28;4.70;;;1.45;;
38457;SDS011;24239;48.058;10.486;2022-09-13T14:00:21;4.43;;;1.25;;
38457;SDS011;24239;48.058;10.486;2022-09-13T14:19:37;6.97;;;1.33;;
38457;SDS011;24239;48.058;10.486;2022-09-13T14:27:20;2.60;;;1.20;;
38457;SDS011;24239;48.058;10.486;2022-09-13T14:32:43;7.53;;;1.70;;
38457;SDS011;24239;48.058;10.486;2022-09-13T14:38:17;3.40;;;1.30;;
38457;SDS011;24239;48.058;10.486;2022-09-13T14:40:50;2.38;;;1.30;;
38457;SDS011;24239;48.058;10.486;2022-09-13T14:43:18;3.15;;;1.30;;
38457;SDS011;24239;48.058;10.486;2022-09-13T14:45:49;3.25;;;1.30;;
38457;SDS011;24239;48.058;10.486;2022-09-13T14:48:23;5.88;;;1.38;;
38457;SDS011;24239;48.058;10.486;2022-09-13T14:50:55;10.35;;;1.60;;
38457;SDS011;24239;48.058;10.486;2022-09-13T14:53:43;8.52;;;1.88;;
38457;SDS011;24239;48.058;10.486;2022-09-13T14:56:14;3.90;;;1.55;;
38457;SDS011;24239;48.058;10.486;2022-09-13T14:58:54;5.20;;;1.50;;
38457;SDS011;24239;48.058;10.486;2022-09-13T15:01:27;6.10;;;1.40;;
38457;SDS011;24239;48.058;10.486;2022-09-13T15:03:56;3.35;;;1.30;;
38457;SDS011;24239;48.058;10.486;2022-09-13T15:06:25;4.72;;;1.67;;
38457;SDS011;24239;48.058;10.486;2022-09-13T15:09:15;4.00;;;1.40;;
38457;SDS011;24239;48.058;10.486;2022-09-13T15:14:23;4.35;;;1.85;;
38457;SDS011;24239;48.058;10.486;2022-09-13T15:17:00;4.00;;;1.35;;
38457;SDS011;24239;48.058;10.486;2022-09-13T15:22:10;3.75;;;1.40;;
38457;SDS011;24239;48.058;10.486;2022-09-13T15:24:49;5.30;;;1.35;;
38457;SDS011;24239;48.058;10.486;2022-09-13T15:27:21;1.77;;;1.00;;
38457;SDS011;24239;48.058;10.486;2022-09-13T15:29:53;3.70;;;1.50;;
38457;SDS011;24239;48.058;10.486;2022-09-13T15:32:28;3.42;;;1.80;;
38457;SDS011;24239;48.058;10.486;2022-09-13T15:34:55;4.53;;;1.40;;
38457;SDS011;24239;48.058;10.486;2022-09-13T15:37:43;2.28;;;1.60;;
38457;SDS011;24239;48.058;10.486;2022-09-13T15:42:49;5.05;;;1.20;;
38457;SDS011;24239;48.058;10.486;2022-09-13T15:45:17;4.28;;;1.33;;
38457;SDS011;24239;48.058;10.486;2022-09-13T15:47:45;2.65;;;1.50;;
38457;SDS011;24239;48.058;10.486;2022-09-13T15:50:23;6.03;;;1.50;;
38457;SDS011;24239;48.058;10.486;2022-09-13T15:52:51;6.18;;;1.50;;
38457;SDS011;24239;48.058;10.486;2022-09-13T15:55:18;10.55;;;2.17;;
38457;SDS011;24239;48.058;10.486;2022-09-13T15:57:45;7.03;;;1.42;;
38457;SDS011;24239;48.058;10.486;2022-09-13T16:00:13;3.78;;;1.45;;
38457;SDS011;24239;48.058;10.486;2022-09-13T16:02:40;3.42;;;1.42;;
38457;SDS011;24239;48.058;10.486;2022-09-13T16:05:06;4.93;;;1.50;;
38457;SDS011;24239;48.058;10.486;2022-09-13T16:07:32;4.13;;;1.63;;
38457;SDS011;24239;48.058;10.486;2022-09-13T16:09:58;5.28;;;1.42;;
38457;SDS011;24239;48.058;10.486;2022-09-13T16:12:25;4.03;;;1.50;;
38457;SDS011;24239;48.058;10.486;2022-09-13T16:14:51;6.30;;;2.05;;
38457;SDS011;24239;48.058;10.486;2022-09-13T16:17:22;4.35;;;1.38;;
38457;SDS011;24239;48.058;10.486;2022-09-13T16:19:49;5.35;;;1.75;;
38457;SDS011;24239;48.058;10.486;2022-09-13T16:22:15;6.10;;;1.70;;
38457;SDS011;24239;48.058;10.486;2022-09-13T16:24:42;2.35;;;1.38;;
38457;SDS011;24239;48.058;10.486;2022-09-13T16:27:11;4.72;;;1.65;;
38457;SDS011;24239;48.058;10.486;2022-09-13T16:29:39;6.43;;;1.40;;
38457;SDS011;24239;48.058;10.486;2022-09-13T16:32:05;15.68;;;5.07;;
38457;SDS011;24239;48.058;10.486;2022-09-13T16:34:31;2.72;;;1.40;;
38457;SDS011;24239;48.058;10.486;2022-09-13T16:36:57;2.80;;;1.05;;
38457;SDS011;24239;48.058;10.486;2022-09-13T16:39:23;4.28;;;1.50;;
38457;SDS011;24239;48.058;10.486;2022-09-13T16:41:49;2.75;;;1.67;;
38457;SDS011;24239;48.058;10.486;2022-09-13T16:44:15;3.00;;;1.20;;
38457;SDS011;24239;48.058;10.486;2022-09-13T16:46:41;1.58;;;1.40;;
38457;SDS011;24239;48.058;10.486;2022-09-13T16:49:07;4.80;;;1.65;;
38457;SDS011;24239;48.058;10.486;2022-09-13T16:51:37;3.33;;;1.50;;
38457;SDS011;24239;48.058;10.486;2022-09-13T16:54:03;3.80;;;1.70;;
38457;SDS011;24239;48.058;10.486;2022-09-13T16:56:29;11.50;;;1.73;;
38457;SDS011;24239;48.058;10.486;2022-09-13T16:58:55;5.38;;;1.67;;
38457;SDS011;24239;48.058;10.486;2022-09-13T17:01:22;3.60;;;1.42;;
38457;SDS011;24239;48.058;10.486;2022-09-13T17:03:50;4.38;;;1.83;;
38457;SDS011;24239;48.058;10.486;2022-09-13T17:06:17;5.72;;;1.92;;
38457;SDS011;24239;48.058;10.486;2022-09-13T17:08:47;4.07;;;1.88;;
38457;SDS011;24239;48.058;10.486;2022-09-13T17:11:25;7.68;;;1.80;;
38457;SDS011;24239;48.058;10.486;2022-09-13T17:13:52;4.10;;;1.83;;
38457;SDS011;24239;48.058;10.486;2022-09-13T17:16:23;7.25;;;1.73;;
38457;SDS011;24239;48.058;10.486;2022-09-13T17:18:53;8.13;;;2.80;;
38457;SDS011;24239;48.058;10.486;2022-09-13T17:21:24;3.88;;;1.95;;
38457;SDS011;24239;48.058;10.486;2022-09-13T17:23:50;5.38;;;2.00;;
38457;SDS011;24239;48.058;10.486;2022-09-13T17:26:16;8.07;;;1.95;;
38457;SDS011;24239;48.058;10.486;2022-09-13T17:28:42;5.75;;;2.33;;
38457;SDS011;24239;48.058;10.486;2022-09-13T17:31:08;4.65;;;2.13;;
38457;SDS011;24239;48.058;10.486;2022-09-13T17:33:33;2.20;;;1.73;;
38457;SDS011;24239;48.058;10.486;2022-09-13T17:36:00;7.75;;;4.25;;
38457;SDS011;24239;48.058;10.486;2022-09-13T17:38:29;10.75;;;4.47;;
38457;SDS011;24239;48.058;10.486;2022-09-13T17:41:02;17.33;;;9.88;;
38457;SDS011;24239;48.058;10.486;2022-09-13T17:43:34;17.20;;;10.63;;
38457;SDS011;24239;48.058;10.486;2022-09-13T17:46:03;10.07;;;4.13;;
38457;SDS011;24239;48.058;10.486;2022-09-13T17:48:31;6.40;;;3.10;;
38457;SDS011;24239;48.058;10.486;2022-09-13T17:51:04;5.45;;;2.80;;
38457;SDS011;24239;48.058;10.486;2022-09-13T17:53:41;7.88;;;2.70;;
38457;SDS011;24239;48.058;10.486;2022-09-13T17:56:15;6.93;;;2.88;;
38457;SDS011;24239;48.058;10.486;2022-09-13T17:58:42;4.03;;;2.77;;
38457;SDS011;24239;48.058;10.486;2022-09-13T18:01:08;4.20;;;3.20;;
38457;SDS011;24239;48.058;10.486;2022-09-13T18:03:35;6.70;;;3.28;;
38457;SDS011;24239;48.058;10.486;2022-09-13T18:06:03;14.93;;;5.50;;
38457;SDS011;24239;48.058;10.486;2022-09-13T18:08:31;5.47;;;3.40;;
38457;SDS011;24239;48.058;10.486;2022-09-13T18:11:06;7.35;;;3.08;;
38457;SDS011;24239;48.058;10.486;2022-09-13T18:13:34;10.43;;;3.58;;
38457;SDS011;24239;48.058;10.486;2022-09-13T18:16:02;7.25;;;4.60;;
38457;SDS011;24239;48.058;10.486;2022-09-13T18:18:28;10.85;;;4.03;;
38457;SDS011;24239;48.058;10.486;2022-09-13T18:20:55;7.47;;;4.70;;
38457;SDS011;24239;48.058;10.486;2022-09-13T18:23:21;10.98;;;4.38;;
38457;SDS011;24239;48.058;10.486;2022-09-13T18:26:07;9.20;;;3.95;;
38457;SDS011;24239;48.058;10.486;2022-09-13T18:28:34;7.47;;;4.13;;
38457;SDS011;24239;48.058;10.486;2022-09-13T18:31:01;7.78;;;3.47;;
38457;SDS011;24239;48.058;10.486;2022-09-13T18:33:35;4.72;;;3.55;;
38457;SDS011;24239;48.058;10.486;2022-09-13T18:38:34;8.43;;;3.70;;
38457;SDS011;24239;48.058;10.486;2022-09-13T18:43:53;9.35;;;4.50;;
38457;SDS011;24239;48.058;10.486;2022-09-13T18:46:20;14.50;;;5.57;;
38457;SDS011;24239;48.058;10.486;2022-09-13T18:48:51;9.20;;;4.20;;
38457;SDS011;24239;48.058;10.486;2022-09-13T18:51:22;6.40;;;4.20;;
38457;SDS011;24239;48.058;10.486;2022-09-13T18:53:50;8.10;;;4.18;;
38457;SDS011;24239;48.058;10.486;2022-09-13T18:56:17;8.75;;;4.03;;
38457;SDS011;24239;48.058;10.486;2022-09-13T18:58:45;7.75;;;4.10;;
38457;SDS011;24239;48.058;10.486;2022-09-13T19:01:11;5.50;;;4.32;;
38457;SDS011;24239;48.058;10.486;2022-09-13T19:03:45;13.13;;;5.32;;
38457;SDS011;24239;48.058;10.486;2022-09-13T19:06:22;10.55;;;4.60;;
38457;SDS011;24239;48.058;10.486;2022-09-13T19:08:50;13.52;;;4.25;;
38457;SDS011;24239;48.058;10.486;2022-09-13T19:11:17;6.05;;;3.70;;
38457;SDS011;24239;48.058;10.486;2022-09-13T19:13:43;5.60;;;3.30;;
38457;SDS011;24239;48.058;10.486;2022-09-13T19:16:10;6.80;;;3.28;;
38457;SDS011;24239;48.058;10.486;2022-09-13T19:18:39;9.98;;;3.25;;
38457;SDS011;24239;48.058;10.486;2022-09-13T19:23:38;4.88;;;3.20;;
38457;SDS011;24239;48.058;10.486;2022-09-13T19:26:10;5.03;;;3.10;;
38457;SDS011;24239;48.058;10.486;2022-09-13T19:28:37;9.23;;;4.10;;
38457;SDS011;24239;48.058;10.486;2022-09-13T19:31:05;6.93;;;3.45;;
38457;SDS011;24239;48.058;10.486;2022-09-13T19:33:32;6.70;;;3.53;;